sensor_id;sensor_type;location;lat;lon;timestamp;temperature;humidity
10472;DHT22;5283;48.876;8.962;2022-11-24T00:01:03;5.10;99.90
10472;DHT22;5283;48.876;8.962;2022-11-24T00:03:30;5.10;99.90
10472;DHT22;5283;48.876;8.962;2022-11-24T00:06:04;5.00;99.90
10472;DHT22;5283;48.876;8.962;2022-11-24T00:08:33;5.00;99.90
10472;DHT22;5283;48.876;8.962;2022-11-24T00:11:08;4.90;99.90
10472;DHT22;5283;48.876;8.962;2022-11-24T00:13:36;5.00;99.90
10472;DHT22;5283;48.876;8.962;2022-11-24T00:16:16;5.00;99.90
10472;DHT22;5283;48.876;8.962;2022-11-24T00:18:45;5.30;99.90
10472;DHT22;5283;48.876;8.962;2022-11-24T00:21:13;5.50;99.90
10472;DHT22;5283;48.876;8.962;2022-11-24T00:23:40;5.70;99.90
10472;DHT22;5283;48.876;8.962;2022-11-24T00:28:44;5.90;99.90
10472;DHT22;5283;48.876;8.962;2022-11-24T00:31:23;6.00;99.90
10472;DHT22;5283;48.876;8.962;2022-11-24T00:33:52;6.30;99.90
10472;DHT22;5283;48.876;8.962;2022-11-24T00:36:21;6.40;99.90
10472;DHT22;5283;48.876;8.962;2022-11-24T00:38:52;6.30;99.90
10472;DHT22;5283;48.876;8.962;2022-11-24T00:41:20;6.60;99.90
10472;DHT22;5283;48.876;8.962;2022-11-24T00:43:47;6.40;99.90
10472;DHT22;5283;48.876;8.962;2022-11-24T00:46:13;6.20;99.90
10472;DHT22;5283;48.876;8.962;2022-11-24T00:48:40;6.40;99.90
10472;DHT22;5283;48.876;8.962;2022-11-24T00:51:09;6.40;99.90
10472;DHT22;5283;48.876;8.962;2022-11-24T00:53:36;6.40;99.90
10472;DHT22;5283;48.876;8.962;2022-11-24T00:56:04;6.60;99.90
10472;DHT22;5283;48.876;8.962;2022-11-24T00:58:32;6.40;99.90
10472;DHT22;5283;48.876;8.962;2022-11-24T01:01:07;6.40;99.90
10472;DHT22;5283;48.876;8.962;2022-11-24T01:03:34;6.20;99.90
10472;DHT22;5283;48.876;8.962;2022-11-24T01:06:06;6.10;99.90
10472;DHT22;5283;48.876;8.962;2022-11-24T01:08:35;5.90;99.90
10472;DHT22;5283;48.876;8.962;2022-11-24T01:13:34;6.10;99.90
10472;DHT22;5283;48.876;8.962;2022-11-24T01:16:01;6.10;99.90
10472;DHT22;5283;48.876;8.962;2022-11-24T01:18:28;6.20;99.90
10472;DHT22;5283;48.876;8.962;2022-11-24T01:20:54;6.20;99.90
10472;DHT22;5283;48.876;8.962;2022-11-24T01:23:21;6.20;99.90
10472;DHT22;5283;48.876;8.962;2022-11-24T01:25:48;6.20;99.90
10472;DHT22;5283;48.876;8.962;2022-11-24T01:28:14;6.20;99.90
10472;DHT22;5283;48.876;8.962;2022-11-24T01:30:41;6.20;99.90
10472;DHT22;5283;48.876;8.962;2022-11-24T01:33:08;6.30;99.90
10472;DHT22;5283;48.876;8.962;2022-11-24T01:35:35;6.30;99.90
10472;DHT22;5283;48.876;8.962;2022-11-24T01:38:02;6.30;99.90
10472;DHT22;5283;48.876;8.962;2022-11-24T01:40:28;6.30;99.90
10472;DHT22;5283;48.876;8.962;2022-11-24T01:42:55;6.40;99.90
10472;DHT22;5283;48.876;8.962;2022-11-24T01:45:36;6.40;99.90
10472;DHT22;5283;48.876;8.962;2022-11-24T01:48:15;6.40;99.90
10472;DHT22;5283;48.876;8.962;2022-11-24T01:50:42;6.30;99.90
10472;DHT22;5283;48.876;8.962;2022-11-24T01:53:09;6.30;99.90
10472;DHT22;5283;48.876;8.962;2022-11-24T01:55:38;6.30;99.90
10472;DHT22;5283;48.876;8.962;2022-11-24T01:58:18;6.30;99.90
10472;DHT22;5283;48.876;8.962;2022-11-24T02:00:47;6.30;99.90
10472;DHT22;5283;48.876;8.962;2022-11-24T02:03:17;6.30;99.90
10472;DHT22;5283;48.876;8.962;2022-11-24T02:08:48;6.10;99.90
10472;DHT22;5283;48.876;8.962;2022-11-24T02:11:17;6.00;99.90
10472;DHT22;5283;48.876;8.962;2022-11-24T02:13:46;5.80;99.90
10472;DHT22;5283;48.876;8.962;2022-11-24T02:16:13;5.60;99.90
10472;DHT22;5283;48.876;8.962;2022-11-24T02:18:41;5.40;99.90
10472;DHT22;5283;48.876;8.962;2022-11-24T02:21:10;5.30;99.90
10472;DHT22;5283;48.876;8.962;2022-11-24T02:26:53;5.20;99.90
10472;DHT22;5283;48.876;8.962;2022-11-24T02:29:20;5.20;99.90
10472;DHT22;5283;48.876;8.962;2022-11-24T02:31:51;5.20;99.90
10472;DHT22;5283;48.876;8.962;2022-11-24T02:34:20;5.20;99.90
10472;DHT22;5283;48.876;8.962;2022-11-24T02:36:47;5.10;99.90
10472;DHT22;5283;48.876;8.962;2022-11-24T02:39:14;5.10;99.90
10472;DHT22;5283;48.876;8.962;2022-11-24T02:41:52;5.00;99.90
10472;DHT22;5283;48.876;8.962;2022-11-24T02:44:22;5.20;99.90
10472;DHT22;5283;48.876;8.962;2022-11-24T02:47:03;5.20;99.90
10472;DHT22;5283;48.876;8.962;2022-11-24T02:49:30;5.10;99.90
10472;DHT22;5283;48.876;8.962;2022-11-24T02:51:57;5.00;99.90
10472;DHT22;5283;48.876;8.962;2022-11-24T02:54:24;4.80;99.90
10472;DHT22;5283;48.876;8.962;2022-11-24T02:56:51;4.70;99.90
10472;DHT22;5283;48.876;8.962;2022-11-24T02:59:18;4.60;99.90
10472;DHT22;5283;48.876;8.962;2022-11-24T03:01:45;4.40;99.90
10472;DHT22;5283;48.876;8.962;2022-11-24T03:04:12;4.30;99.90
10472;DHT22;5283;48.876;8.962;2022-11-24T03:06:38;4.30;99.90
10472;DHT22;5283;48.876;8.962;2022-11-24T03:09:05;4.00;99.90
10472;DHT22;5283;48.876;8.962;2022-11-24T03:11:32;3.90;99.90
10472;DHT22;5283;48.876;8.962;2022-11-24T03:13:59;3.70;99.90
10472;DHT22;5283;48.876;8.962;2022-11-24T03:16:25;3.60;99.90
10472;DHT22;5283;48.876;8.962;2022-11-24T03:18:52;3.40;99.90
10472;DHT22;5283;48.876;8.962;2022-11-24T03:21:19;3.30;99.90
10472;DHT22;5283;48.876;8.962;2022-11-24T03:23:46;3.20;99.90
10472;DHT22;5283;48.876;8.962;2022-11-24T03:26:16;3.10;99.90
10472;DHT22;5283;48.876;8.962;2022-11-24T03:28:44;3.00;99.90
10472;DHT22;5283;48.876;8.962;2022-11-24T03:31:11;3.00;99.90
10472;DHT22;5283;48.876;8.962;2022-11-24T03:33:38;3.10;99.90
10472;DHT22;5283;48.876;8.962;2022-11-24T03:36:06;3.10;99.90
10472;DHT22;5283;48.876;8.962;2022-11-24T03:38:33;3.30;99.90
10472;DHT22;5283;48.876;8.962;2022-11-24T03:40:59;3.40;99.90
10472;DHT22;5283;48.876;8.962;2022-11-24T03:43:26;3.50;99.90
10472;DHT22;5283;48.876;8.962;2022-11-24T03:45:53;3.50;99.90
10472;DHT22;5283;48.876;8.962;2022-11-24T03:48:19;3.60;99.90
10472;DHT22;5283;48.876;8.962;2022-11-24T03:50:58;3.60;99.90
10472;DHT22;5283;48.876;8.962;2022-11-24T03:53:26;3.70;99.90
10472;DHT22;5283;48.876;8.962;2022-11-24T03:55:53;3.60;99.90
10472;DHT22;5283;48.876;8.962;2022-11-24T03:58:20;3.60;99.90
10472;DHT22;5283;48.876;8.962;2022-11-24T04:00:48;3.60;99.90
10472;DHT22;5283;48.876;8.962;2022-11-24T04:03:15;3.60;99.90
10472;DHT22;5283;48.876;8.962;2022-11-24T04:05:42;3.60;99.90
10472;DHT22;5283;48.876;8.962;2022-11-24T04:08:08;3.70;99.90
10472;DHT22;5283;48.876;8.962;2022-11-24T04:10:36;3.80;99.90
10472;DHT22;5283;48.876;8.962;2022-11-24T04:13:14;4.00;99.90
10472;DHT22;5283;48.876;8.962;2022-11-24T04:15:42;4.20;99.90
10472;DHT22;5283;48.876;8.962;2022-11-24T04:18:10;4.20;99.90
10472;DHT22;5283;48.876;8.962;2022-11-24T04:20:38;4.30;99.90
10472;DHT22;5283;48.876;8.962;2022-11-24T04:23:04;4.30;99.90
10472;DHT22;5283;48.876;8.962;2022-11-24T04:25:31;4.30;99.90
10472;DHT22;5283;48.876;8.962;2022-11-24T04:27:58;4.30;99.90
10472;DHT22;5283;48.876;8.962;2022-11-24T04:30:26;4.30;99.90
10472;DHT22;5283;48.876;8.962;2022-11-24T04:32:53;4.40;99.90
10472;DHT22;5283;48.876;8.962;2022-11-24T04:35:20;4.40;99.90
10472;DHT22;5283;48.876;8.962;2022-11-24T04:37:47;4.50;99.90
10472;DHT22;5283;48.876;8.962;2022-11-24T04:40:14;4.50;99.90
10472;DHT22;5283;48.876;8.962;2022-11-24T04:42:41;4.40;99.90
10472;DHT22;5283;48.876;8.962;2022-11-24T04:45:09;4.30;99.90
10472;DHT22;5283;48.876;8.962;2022-11-24T04:47:37;4.20;99.90
10472;DHT22;5283;48.876;8.962;2022-11-24T04:50:05;4.10;99.90
10472;DHT22;5283;48.876;8.962;2022-11-24T04:52:33;4.00;99.90
10472;DHT22;5283;48.876;8.962;2022-11-24T04:54:59;3.90;99.90
10472;DHT22;5283;48.876;8.962;2022-11-24T04:57:26;3.80;99.90
10472;DHT22;5283;48.876;8.962;2022-11-24T04:59:53;3.80;99.90
10472;DHT22;5283;48.876;8.962;2022-11-24T05:02:21;3.80;99.90
10472;DHT22;5283;48.876;8.962;2022-11-24T05:04:48;3.90;99.90
10472;DHT22;5283;48.876;8.962;2022-11-24T05:07:16;4.00;99.90
10472;DHT22;5283;48.876;8.962;2022-11-24T05:09:45;4.30;99.90
10472;DHT22;5283;48.876;8.962;2022-11-24T05:12:30;4.50;99.90
10472;DHT22;5283;48.876;8.962;2022-11-24T05:15:01;4.50;99.90
10472;DHT22;5283;48.876;8.962;2022-11-24T05:17:33;4.50;99.90
10472;DHT22;5283;48.876;8.962;2022-11-24T05:20:00;4.50;99.90
10472;DHT22;5283;48.876;8.962;2022-11-24T05:22:28;4.60;99.90
10472;DHT22;5283;48.876;8.962;2022-11-24T05:24:55;4.60;99.90
10472;DHT22;5283;48.876;8.962;2022-11-24T05:27:22;4.70;99.90
10472;DHT22;5283;48.876;8.962;2022-11-24T05:29:49;4.80;99.90
10472;DHT22;5283;48.876;8.962;2022-11-24T05:32:15;4.90;99.90
10472;DHT22;5283;48.876;8.962;2022-11-24T05:34:43;4.90;99.90
10472;DHT22;5283;48.876;8.962;2022-11-24T05:37:10;4.90;99.90
10472;DHT22;5283;48.876;8.962;2022-11-24T05:39:36;4.90;99.90
10472;DHT22;5283;48.876;8.962;2022-11-24T05:42:05;4.90;99.90
10472;DHT22;5283;48.876;8.962;2022-11-24T05:44:51;4.90;99.90
10472;DHT22;5283;48.876;8.962;2022-11-24T05:47:19;4.80;99.90
10472;DHT22;5283;48.876;8.962;2022-11-24T05:49:46;4.80;99.90
10472;DHT22;5283;48.876;8.962;2022-11-24T05:52:13;4.90;99.90
10472;DHT22;5283;48.876;8.962;2022-11-24T05:54:40;4.90;99.90
10472;DHT22;5283;48.876;8.962;2022-11-24T05:57:07;4.90;99.90
10472;DHT22;5283;48.876;8.962;2022-11-24T05:59:33;4.90;99.90
10472;DHT22;5283;48.876;8.962;2022-11-24T06:02:00;5.00;99.90
10472;DHT22;5283;48.876;8.962;2022-11-24T06:04:27;5.10;99.90
10472;DHT22;5283;48.876;8.962;2022-11-24T06:06:54;5.10;99.90
10472;DHT22;5283;48.876;8.962;2022-11-24T06:09:20;5.20;99.90
10472;DHT22;5283;48.876;8.962;2022-11-24T06:11:47;5.20;99.90
10472;DHT22;5283;48.876;8.962;2022-11-24T06:14:14;5.30;99.90
10472;DHT22;5283;48.876;8.962;2022-11-24T06:16:41;5.30;99.90
10472;DHT22;5283;48.876;8.962;2022-11-24T06:19:11;5.30;99.90
10472;DHT22;5283;48.876;8.962;2022-11-24T06:21:38;5.30;99.90
10472;DHT22;5283;48.876;8.962;2022-11-24T06:24:05;5.40;99.90
10472;DHT22;5283;48.876;8.962;2022-11-24T06:26:31;5.40;99.90
10472;DHT22;5283;48.876;8.962;2022-11-24T06:28:58;5.60;99.90
10472;DHT22;5283;48.876;8.962;2022-11-24T06:31:25;5.80;99.90
10472;DHT22;5283;48.876;8.962;2022-11-24T06:33:52;6.20;99.90
10472;DHT22;5283;48.876;8.962;2022-11-24T06:36:19;6.30;99.90
10472;DHT22;5283;48.876;8.962;2022-11-24T06:38:45;6.40;99.90
10472;DHT22;5283;48.876;8.962;2022-11-24T06:41:14;6.40;99.90
10472;DHT22;5283;48.876;8.962;2022-11-24T06:43:41;6.40;99.90
10472;DHT22;5283;48.876;8.962;2022-11-24T06:46:08;6.60;99.90
10472;DHT22;5283;48.876;8.962;2022-11-24T06:48:35;6.60;99.90
10472;DHT22;5283;48.876;8.962;2022-11-24T06:51:05;6.70;99.90
10472;DHT22;5283;48.876;8.962;2022-11-24T06:53:36;6.80;99.90
10472;DHT22;5283;48.876;8.962;2022-11-24T06:56:05;6.80;99.90
10472;DHT22;5283;48.876;8.962;2022-11-24T06:58:39;6.80;99.90
10472;DHT22;5283;48.876;8.962;2022-11-24T07:01:07;6.70;99.90
10472;DHT22;5283;48.876;8.962;2022-11-24T07:03:34;6.80;99.90
10472;DHT22;5283;48.876;8.962;2022-11-24T07:06:00;6.70;99.90
10472;DHT22;5283;48.876;8.962;2022-11-24T07:08:27;6.80;99.90
10472;DHT22;5283;48.876;8.962;2022-11-24T07:10:54;6.70;99.90
10472;DHT22;5283;48.876;8.962;2022-11-24T07:13:20;6.70;99.90
10472;DHT22;5283;48.876;8.962;2022-11-24T07:15:47;6.60;99.90
10472;DHT22;5283;48.876;8.962;2022-11-24T07:18:14;6.60;99.90
10472;DHT22;5283;48.876;8.962;2022-11-24T07:20:40;6.60;99.90
10472;DHT22;5283;48.876;8.962;2022-11-24T07:23:07;6.60;99.90
10472;DHT22;5283;48.876;8.962;2022-11-24T07:25:34;6.60;99.90
10472;DHT22;5283;48.876;8.962;2022-11-24T07:28:01;6.70;99.90
10472;DHT22;5283;48.876;8.962;2022-11-24T07:30:28;6.80;99.90
10472;DHT22;5283;48.876;8.962;2022-11-24T07:33:01;6.80;99.90
10472;DHT22;5283;48.876;8.962;2022-11-24T07:35:28;6.90;99.90
10472;DHT22;5283;48.876;8.962;2022-11-24T07:37:56;6.90;99.90
10472;DHT22;5283;48.876;8.962;2022-11-24T07:40:25;6.90;99.90
10472;DHT22;5283;48.876;8.962;2022-11-24T07:42:52;6.90;99.90
10472;DHT22;5283;48.876;8.962;2022-11-24T07:45:19;7.00;99.90
10472;DHT22;5283;48.876;8.962;2022-11-24T07:47:46;7.00;99.90
10472;DHT22;5283;48.876;8.962;2022-11-24T07:50:13;7.00;99.90
10472;DHT22;5283;48.876;8.962;2022-11-24T07:52:40;6.90;99.90
10472;DHT22;5283;48.876;8.962;2022-11-24T07:55:07;6.90;99.90
10472;DHT22;5283;48.876;8.962;2022-11-24T07:57:34;6.80;99.90
10472;DHT22;5283;48.876;8.962;2022-11-24T08:00:01;6.80;99.90
10472;DHT22;5283;48.876;8.962;2022-11-24T08:02:27;6.80;99.90
10472;DHT22;5283;48.876;8.962;2022-11-24T08:04:54;6.80;99.90
10472;DHT22;5283;48.876;8.962;2022-11-24T08:07:21;6.90;99.90
10472;DHT22;5283;48.876;8.962;2022-11-24T08:09:48;6.90;99.90
10472;DHT22;5283;48.876;8.962;2022-11-24T08:12:15;6.90;99.90
10472;DHT22;5283;48.876;8.962;2022-11-24T08:14:50;6.90;99.90
10472;DHT22;5283;48.876;8.962;2022-11-24T08:17:17;6.90;99.90
10472;DHT22;5283;48.876;8.962;2022-11-24T08:19:44;6.90;99.90
10472;DHT22;5283;48.876;8.962;2022-11-24T08:22:11;6.90;99.90
10472;DHT22;5283;48.876;8.962;2022-11-24T08:24:37;7.00;99.90
10472;DHT22;5283;48.876;8.962;2022-11-24T08:27:05;7.00;99.90
10472;DHT22;5283;48.876;8.962;2022-11-24T08:29:32;7.10;99.90
10472;DHT22;5283;48.876;8.962;2022-11-24T08:31:59;7.10;99.90
10472;DHT22;5283;48.876;8.962;2022-11-24T08:34:25;7.10;99.90
10472;DHT22;5283;48.876;8.962;2022-11-24T08:36:52;7.10;99.90
10472;DHT22;5283;48.876;8.962;2022-11-24T08:39:19;7.10;99.90
10472;DHT22;5283;48.876;8.962;2022-11-24T08:41:46;7.10;99.90
10472;DHT22;5283;48.876;8.962;2022-11-24T08:44:12;7.10;99.90
10472;DHT22;5283;48.876;8.962;2022-11-24T08:46:41;7.10;99.90
10472;DHT22;5283;48.876;8.962;2022-11-24T08:49:08;7.10;99.90
10472;DHT22;5283;48.876;8.962;2022-11-24T08:51:35;7.20;99.90
10472;DHT22;5283;48.876;8.962;2022-11-24T08:54:02;7.20;99.90
10472;DHT22;5283;48.876;8.962;2022-11-24T08:56:31;7.20;99.90
10472;DHT22;5283;48.876;8.962;2022-11-24T08:58:58;7.30;99.90
10472;DHT22;5283;48.876;8.962;2022-11-24T09:01:26;7.40;99.90
10472;DHT22;5283;48.876;8.962;2022-11-24T09:03:53;7.50;99.90
10472;DHT22;5283;48.876;8.962;2022-11-24T09:06:22;7.60;99.90
10472;DHT22;5283;48.876;8.962;2022-11-24T09:08:52;7.70;99.90
10472;DHT22;5283;48.876;8.962;2022-11-24T09:11:20;7.70;99.90
10472;DHT22;5283;48.876;8.962;2022-11-24T09:13:47;7.80;99.90
10472;DHT22;5283;48.876;8.962;2022-11-24T09:16:16;7.90;99.90
10472;DHT22;5283;48.876;8.962;2022-11-24T09:18:44;7.90;99.90
10472;DHT22;5283;48.876;8.962;2022-11-24T09:21:16;8.00;99.90
10472;DHT22;5283;48.876;8.962;2022-11-24T09:23:45;8.10;99.90
10472;DHT22;5283;48.876;8.962;2022-11-24T09:26:15;8.20;99.90
10472;DHT22;5283;48.876;8.962;2022-11-24T09:28:43;8.20;99.90
10472;DHT22;5283;48.876;8.962;2022-11-24T09:31:12;8.30;99.90
10472;DHT22;5283;48.876;8.962;2022-11-24T09:33:40;8.30;99.90
10472;DHT22;5283;48.876;8.962;2022-11-24T09:36:07;8.30;99.90
10472;DHT22;5283;48.876;8.962;2022-11-24T09:38:34;8.20;99.90
10472;DHT22;5283;48.876;8.962;2022-11-24T09:44:10;8.10;99.90
10472;DHT22;5283;48.876;8.962;2022-11-24T09:49:41;8.30;99.90
10472;DHT22;5283;48.876;8.962;2022-11-24T09:52:12;8.40;99.90
10472;DHT22;5283;48.876;8.962;2022-11-24T09:54:48;8.60;99.90
10472;DHT22;5283;48.876;8.962;2022-11-24T09:57:18;8.70;99.90
10472;DHT22;5283;48.876;8.962;2022-11-24T09:59:46;8.80;99.90
10472;DHT22;5283;48.876;8.962;2022-11-24T10:02:13;8.70;99.90
10472;DHT22;5283;48.876;8.962;2022-11-24T10:04:45;8.90;99.90
10472;DHT22;5283;48.876;8.962;2022-11-24T10:07:31;9.00;99.90
10472;DHT22;5283;48.876;8.962;2022-11-24T10:10:17;9.20;99.90
10472;DHT22;5283;48.876;8.962;2022-11-24T10:15:43;9.30;99.90
10472;DHT22;5283;48.876;8.962;2022-11-24T10:26:39;9.40;99.90
10472;DHT22;5283;48.876;8.962;2022-11-24T10:29:22;9.50;99.90
10472;DHT22;5283;48.876;8.962;2022-11-24T10:31:53;9.40;99.90
10472;DHT22;5283;48.876;8.962;2022-11-24T10:43:25;9.70;99.90
10472;DHT22;5283;48.876;8.962;2022-11-24T10:48:49;9.40;99.90
10472;DHT22;5283;48.876;8.962;2022-11-24T10:51:31;9.20;99.90
10472;DHT22;5283;48.876;8.962;2022-11-24T10:54:06;8.90;99.90
10472;DHT22;5283;48.876;8.962;2022-11-24T10:56:39;8.90;99.90
10472;DHT22;5283;48.876;8.962;2022-11-24T11:01:55;9.00;99.90
10472;DHT22;5283;48.876;8.962;2022-11-24T11:04:32;9.10;99.90
10472;DHT22;5283;48.876;8.962;2022-11-24T11:07:15;9.10;99.90
10472;DHT22;5283;48.876;8.962;2022-11-24T11:09:44;9.20;99.90
10472;DHT22;5283;48.876;8.962;2022-11-24T11:12:22;9.30;99.90
10472;DHT22;5283;48.876;8.962;2022-11-24T11:15:29;9.40;99.90
10472;DHT22;5283;48.876;8.962;2022-11-24T11:17:58;9.50;99.90
10472;DHT22;5283;48.876;8.962;2022-11-24T11:20:32;9.70;99.90
10472;DHT22;5283;48.876;8.962;2022-11-24T11:23:05;9.60;99.90
10472;DHT22;5283;48.876;8.962;2022-11-24T11:25:39;9.60;99.90
10472;DHT22;5283;48.876;8.962;2022-11-24T11:28:27;9.50;99.90
10472;DHT22;5283;48.876;8.962;2022-11-24T11:30:57;9.60;99.90
10472;DHT22;5283;48.876;8.962;2022-11-24T11:33:57;9.70;99.90
10472;DHT22;5283;48.876;8.962;2022-11-24T11:36:50;10.00;99.90
10472;DHT22;5283;48.876;8.962;2022-11-24T11:39:37;9.90;99.90
10472;DHT22;5283;48.876;8.962;2022-11-24T11:45:20;10.30;99.90
10472;DHT22;5283;48.876;8.962;2022-11-24T11:50:54;10.20;99.90
10472;DHT22;5283;48.876;8.962;2022-11-24T11:56:28;10.10;99.90
10472;DHT22;5283;48.876;8.962;2022-11-24T12:05:10;9.90;99.90
10472;DHT22;5283;48.876;8.962;2022-11-24T12:07:54;10.00;99.90
10472;DHT22;5283;48.876;8.962;2022-11-24T12:10:42;10.10;99.90
10472;DHT22;5283;48.876;8.962;2022-11-24T12:15:52;10.30;99.90
10472;DHT22;5283;48.876;8.962;2022-11-24T12:18:37;10.40;99.90
10472;DHT22;5283;48.876;8.962;2022-11-24T12:21:32;10.40;99.90
10472;DHT22;5283;48.876;8.962;2022-11-24T12:26:44;10.30;99.90
10472;DHT22;5283;48.876;8.962;2022-11-24T12:35:10;10.30;99.90
10472;DHT22;5283;48.876;8.962;2022-11-24T12:38:02;10.30;99.90
10472;DHT22;5283;48.876;8.962;2022-11-24T12:43:22;10.40;99.90
10472;DHT22;5283;48.876;8.962;2022-11-24T12:46:12;10.40;99.90
10472;DHT22;5283;48.876;8.962;2022-11-24T12:51:21;10.50;99.90
10472;DHT22;5283;48.876;8.962;2022-11-24T12:53:51;10.50;99.90
10472;DHT22;5283;48.876;8.962;2022-11-24T12:56:41;10.50;99.90
10472;DHT22;5283;48.876;8.962;2022-11-24T12:59:21;10.70;99.90
10472;DHT22;5283;48.876;8.962;2022-11-24T13:07:53;10.70;99.90
10472;DHT22;5283;48.876;8.962;2022-11-24T13:13:10;10.60;99.90
10472;DHT22;5283;48.876;8.962;2022-11-24T13:18:52;10.80;99.90
10472;DHT22;5283;48.876;8.962;2022-11-24T13:26:46;10.40;99.90
10472;DHT22;5283;48.876;8.962;2022-11-24T13:39:55;10.10;99.90
10472;DHT22;5283;48.876;8.962;2022-11-24T13:42:23;10.20;99.90
10472;DHT22;5283;48.876;8.962;2022-11-24T13:44:59;10.20;99.90
10472;DHT22;5283;48.876;8.962;2022-11-24T13:47:44;10.20;99.90
10472;DHT22;5283;48.876;8.962;2022-11-24T13:50:23;10.10;99.90
10472;DHT22;5283;48.876;8.962;2022-11-24T13:56:04;9.90;99.90
10472;DHT22;5283;48.876;8.962;2022-11-24T13:58:42;9.90;99.90
10472;DHT22;5283;48.876;8.962;2022-11-24T14:01:26;9.80;99.90
10472;DHT22;5283;48.876;8.962;2022-11-24T14:04:22;9.80;99.90
10472;DHT22;5283;48.876;8.962;2022-11-24T14:07:05;9.80;99.90
10472;DHT22;5283;48.876;8.962;2022-11-24T14:09:44;9.70;99.90
10472;DHT22;5283;48.876;8.962;2022-11-24T14:12:22;9.60;99.90
10472;DHT22;5283;48.876;8.962;2022-11-24T14:14:51;9.50;99.90
10472;DHT22;5283;48.876;8.962;2022-11-24T14:17:26;9.50;99.90
10472;DHT22;5283;48.876;8.962;2022-11-24T14:19:55;9.50;99.90
10472;DHT22;5283;48.876;8.962;2022-11-24T14:22:25;9.40;99.90
10472;DHT22;5283;48.876;8.962;2022-11-24T14:24:57;9.30;99.90
10472;DHT22;5283;48.876;8.962;2022-11-24T14:30:00;9.00;99.90
10472;DHT22;5283;48.876;8.962;2022-11-24T14:32:27;8.90;99.90
10472;DHT22;5283;48.876;8.962;2022-11-24T14:34:55;9.00;99.90
10472;DHT22;5283;48.876;8.962;2022-11-24T14:37:22;9.00;99.90
10472;DHT22;5283;48.876;8.962;2022-11-24T14:39:49;9.00;99.90
10472;DHT22;5283;48.876;8.962;2022-11-24T14:42:20;9.00;99.90
10472;DHT22;5283;48.876;8.962;2022-11-24T14:44:54;9.00;99.90
10472;DHT22;5283;48.876;8.962;2022-11-24T14:47:36;8.90;99.90
10472;DHT22;5283;48.876;8.962;2022-11-24T14:50:10;8.90;99.90
10472;DHT22;5283;48.876;8.962;2022-11-24T14:52:57;8.90;99.90
10472;DHT22;5283;48.876;8.962;2022-11-24T14:55:29;8.50;99.90
10472;DHT22;5283;48.876;8.962;2022-11-24T14:57:57;8.30;99.90
10472;DHT22;5283;48.876;8.962;2022-11-24T15:00:28;7.90;99.90
10472;DHT22;5283;48.876;8.962;2022-11-24T15:03:16;7.70;99.90
10472;DHT22;5283;48.876;8.962;2022-11-24T15:05:51;7.30;99.90
10472;DHT22;5283;48.876;8.962;2022-11-24T15:08:19;7.10;99.90
10472;DHT22;5283;48.876;8.962;2022-11-24T15:10:46;6.70;99.90
10472;DHT22;5283;48.876;8.962;2022-11-24T15:13:19;6.50;99.90
10472;DHT22;5283;48.876;8.962;2022-11-24T15:15:58;6.30;99.90
10472;DHT22;5283;48.876;8.962;2022-11-24T15:18:40;6.10;99.90
10472;DHT22;5283;48.876;8.962;2022-11-24T15:21:08;6.10;99.90
10472;DHT22;5283;48.876;8.962;2022-11-24T15:23:39;5.90;99.90
10472;DHT22;5283;48.876;8.962;2022-11-24T15:28:37;5.50;99.90
10472;DHT22;5283;48.876;8.962;2022-11-24T15:31:07;5.40;99.90
10472;DHT22;5283;48.876;8.962;2022-11-24T15:33:34;5.20;99.90
10472;DHT22;5283;48.876;8.962;2022-11-24T15:36:01;5.10;99.90
10472;DHT22;5283;48.876;8.962;2022-11-24T15:38:28;5.00;99.90
10472;DHT22;5283;48.876;8.962;2022-11-24T15:40:58;4.80;99.90
10472;DHT22;5283;48.876;8.962;2022-11-24T15:43:37;4.70;99.90
10472;DHT22;5283;48.876;8.962;2022-11-24T15:46:06;4.60;99.90
10472;DHT22;5283;48.876;8.962;2022-11-24T15:48:33;4.60;99.90
10472;DHT22;5283;48.876;8.962;2022-11-24T15:51:02;4.50;99.90
10472;DHT22;5283;48.876;8.962;2022-11-24T15:53:35;4.40;99.90
10472;DHT22;5283;48.876;8.962;2022-11-24T15:56:05;4.30;99.90
10472;DHT22;5283;48.876;8.962;2022-11-24T15:58:33;4.20;99.90
10472;DHT22;5283;48.876;8.962;2022-11-24T16:01:00;4.10;99.90
10472;DHT22;5283;48.876;8.962;2022-11-24T16:03:26;3.90;99.90
10472;DHT22;5283;48.876;8.962;2022-11-24T16:06:18;3.90;99.90
10472;DHT22;5283;48.876;8.962;2022-11-24T16:08:49;3.90;99.90
10472;DHT22;5283;48.876;8.962;2022-11-24T16:11:16;3.90;99.90
10472;DHT22;5283;48.876;8.962;2022-11-24T16:13:43;3.80;99.90
10472;DHT22;5283;48.876;8.962;2022-11-24T16:16:12;3.80;99.90
10472;DHT22;5283;48.876;8.962;2022-11-24T16:18:40;3.60;99.90
10472;DHT22;5283;48.876;8.962;2022-11-24T16:21:08;3.30;99.90
10472;DHT22;5283;48.876;8.962;2022-11-24T16:23:35;3.20;99.90
10472;DHT22;5283;48.876;8.962;2022-11-24T16:26:03;3.20;99.90
10472;DHT22;5283;48.876;8.962;2022-11-24T16:28:30;3.10;99.90
10472;DHT22;5283;48.876;8.962;2022-11-24T16:30:57;2.90;99.90
10472;DHT22;5283;48.876;8.962;2022-11-24T16:33:23;2.70;99.90
10472;DHT22;5283;48.876;8.962;2022-11-24T16:35:50;2.50;99.90
10472;DHT22;5283;48.876;8.962;2022-11-24T16:38:18;2.40;99.90
10472;DHT22;5283;48.876;8.962;2022-11-24T16:40:54;2.30;99.90
10472;DHT22;5283;48.876;8.962;2022-11-24T16:43:22;2.30;99.90
10472;DHT22;5283;48.876;8.962;2022-11-24T16:48:41;2.40;99.90
10472;DHT22;5283;48.876;8.962;2022-11-24T16:51:09;2.30;99.90
10472;DHT22;5283;48.876;8.962;2022-11-24T16:53:36;2.20;99.90
10472;DHT22;5283;48.876;8.962;2022-11-24T16:56:03;2.10;99.90
10472;DHT22;5283;48.876;8.962;2022-11-24T16:58:30;2.10;99.90
10472;DHT22;5283;48.876;8.962;2022-11-24T17:01:09;1.90;99.90
10472;DHT22;5283;48.876;8.962;2022-11-24T17:03:36;1.70;99.90
10472;DHT22;5283;48.876;8.962;2022-11-24T17:06:05;1.70;99.90
10472;DHT22;5283;48.876;8.962;2022-11-24T17:08:35;1.90;99.90
10472;DHT22;5283;48.876;8.962;2022-11-24T17:11:14;2.10;99.90
10472;DHT22;5283;48.876;8.962;2022-11-24T17:13:41;2.20;99.90
10472;DHT22;5283;48.876;8.962;2022-11-24T17:16:13;2.10;99.90
10472;DHT22;5283;48.876;8.962;2022-11-24T17:18:41;2.00;99.90
10472;DHT22;5283;48.876;8.962;2022-11-24T17:21:13;1.80;99.90
10472;DHT22;5283;48.876;8.962;2022-11-24T17:23:40;1.70;99.90
10472;DHT22;5283;48.876;8.962;2022-11-24T17:26:10;1.50;99.90
10472;DHT22;5283;48.876;8.962;2022-11-24T17:28:37;1.40;99.90
10472;DHT22;5283;48.876;8.962;2022-11-24T17:31:28;1.30;99.90
10472;DHT22;5283;48.876;8.962;2022-11-24T17:33:59;1.20;99.90
10472;DHT22;5283;48.876;8.962;2022-11-24T17:36:26;1.10;99.90
10472;DHT22;5283;48.876;8.962;2022-11-24T17:38:53;1.20;99.90
10472;DHT22;5283;48.876;8.962;2022-11-24T17:41:20;1.30;99.90
10472;DHT22;5283;48.876;8.962;2022-11-24T17:43:52;1.50;99.90
10472;DHT22;5283;48.876;8.962;2022-11-24T17:46:19;1.50;99.90
10472;DHT22;5283;48.876;8.962;2022-11-24T17:48:46;1.30;99.90
10472;DHT22;5283;48.876;8.962;2022-11-24T17:51:15;1.10;99.90
10472;DHT22;5283;48.876;8.962;2022-11-24T17:53:43;1.10;99.90
10472;DHT22;5283;48.876;8.962;2022-11-24T17:56:13;1.00;99.90
10472;DHT22;5283;48.876;8.962;2022-11-24T17:58:40;0.90;99.90
10472;DHT22;5283;48.876;8.962;2022-11-24T18:01:09;0.80;99.90
10472;DHT22;5283;48.876;8.962;2022-11-24T18:03:40;0.80;99.90
10472;DHT22;5283;48.876;8.962;2022-11-24T18:06:12;0.80;99.90
10472;DHT22;5283;48.876;8.962;2022-11-24T18:08:41;0.90;99.90
10472;DHT22;5283;48.876;8.962;2022-11-24T18:11:19;0.90;99.90
10472;DHT22;5283;48.876;8.962;2022-11-24T18:13:48;1.00;99.90